CYZS

Coral Harbour Airport

Coral Harbour, Canada
TAF CYZS 170639Z 1707/1719 34015KT P6SM FEW015 SCT070 RMK NXT FCST BY 171300Z
Issued Valid From Valid To
Nov-17 @ 06:39 UTC
(2 hours ago)
Nov-17 @ 07:00 UTC
(2 hours ago)
Nov-17 @ 19:00 UTC
(in 10 hours)
Nov-17 @ 07:00 to Nov-17 @ 19:00
TAF CYZS 170639Z 1707/1719 34015KT P6SM FEW015 SCT070 RMK NXT FCST BY 171300Z
Wind Visibility Clouds
340° at 15 knots Greater than 6 miles
  • Few at 1,500' AGL
  • Scattered at 7,000' AGL
TAF CYZS 170639Z 1707/1719 34015KT P6SM FEW015 SCT070 RMK NXT FCST BY 171300Z
Issued Nov-17 @ 06:39 UTC
(2 hours ago)
Valid From Nov-17 @ 07:00 UTC
(2 hours ago)
Valid To Nov-17 @ 19:00 UTC
(in 10 hours)
Nov-17 @ 07:00 - Nov-17 @ 19:00
Wind Visibility
340° at 15 knots Greater than 6 miles
Clouds
  • Few at 1,500' AGL
  • Scattered at 7,000' AGL